Time;durP1;ratioP1;P1;durP2;ratioP2;P2;SDS_P1;SDS_P2;PMS_P1;PMS_P2;Temp;Humidity;BMP_temperature;BMP_pressure;BME280_temperature;BME280_humidity;BME280_pressure;Samples;Min_cycle;Max_cycle;Signal;HPM_P1;HPM_P2
2023/07/28 00:58:32;;;;;;;1999.90;999.90;;;;;;;;;;4991025;23;20292;-74
2023/07/28 01:01:17;;;;;;;1999.90;999.90;;;;;;;;;;4968408;28;20259;-74
2023/07/28 01:04:03;;;;;;;1999.90;999.90;;;;;;;;;;4955620;28;20225;-70
2023/07/28 01:06:51;;;;;;;1999.90;999.90;;;;;;;;;;4950499;28;20360;-74
2023/07/28 01:09:39;;;;;;;1999.90;999.90;;;;;;;;;;4955641;28;20337;-76
2023/07/28 01:12:25;;;;;;;1999.90;999.90;;;;;;;;;;4950836;28;20713;-72
2023/07/28 01:15:11;;;;;;;1999.90;999.90;;;;;;;;;;4951540;28;20209;-72
2023/07/28 01:17:56;;;;;;;1999.90;999.90;;;;;;;;;;4949638;28;20232;-73
2023/07/28 01:20:41;;;;;;;1999.90;999.90;;;;;;;;;;4954993;28;20578;-74
2023/07/28 01:23:35;;;;;;;1999.90;999.90;;;;;;;;;;4954753;28;20338;-74
2023/07/28 01:26:27;;;;;;;1999.90;999.90;;;;;;;;;;4954897;28;20304;-75
2023/07/28 01:29:14;;;;;;;1999.90;999.90;;;;;;;;;;4954940;28;20264;-74
2023/07/28 01:32:00;;;;;;;1999.90;999.90;;;;;;;;;;4948346;28;20253;-75
2023/07/28 01:34:44;;;;;;;1999.90;999.90;;;;;;;;;;4947919;28;20221;-74
2023/07/28 01:37:29;;;;;;;1999.90;999.90;;;;;;;;;;4954410;28;20469;-75
2023/07/28 01:40:14;;;;;;;1999.90;999.90;;;;;;;;;;4962416;28;20215;-74
2023/07/28 01:43:00;;;;;;;1999.90;999.90;;;;;;;;;;4963568;28;20212;-75
2023/07/28 01:45:45;;;;;;;1999.90;999.90;;;;;;;;;;4974896;28;20226;-75
2023/07/28 01:48:30;;;;;;;1999.90;999.90;;;;;;;;;;4960778;28;20212;-74
2023/07/28 01:51:15;;;;;;;1999.90;999.90;;;;;;;;;;4971080;28;20575;-75
2023/07/28 01:54:00;;;;;;;1999.90;999.90;;;;;;;;;;4965351;28;20228;-74
2023/07/28 01:56:45;;;;;;;1999.90;999.90;;;;;;;;;;4953552;28;20235;-73
2023/07/28 01:59:31;;;;;;;1999.90;999.90;;;;;;;;;;4965473;28;20280;-75
2023/07/28 02:02:16;;;;;;;1999.90;999.90;;;;;;;;;;4974259;28;20211;-72
2023/07/28 02:05:01;;;;;;;1999.90;999.90;;;;;;;;;;4961115;28;20335;-74
2023/07/28 02:07:47;;;;;;;1999.90;999.90;;;;;;;;;;4936411;29;20225;-74
2023/07/28 02:10:32;;;;;;;1999.90;999.90;;;;;;;;;;4964269;28;20231;-74
2023/07/28 02:13:16;;;;;;;1999.90;999.90;;;;;;;;;;4966776;28;20205;-73
2023/07/28 02:16:03;;;;;;;1999.90;999.90;;;;;;;;;;4962744;28;20248;-74
2023/07/28 02:18:48;;;;;;;1999.90;999.90;;;;;;;;;;4961259;28;20441;-74
2023/07/28 02:21:32;;;;;;;1999.90;999.90;;;;;;;;;;4962679;28;20709;-73
2023/07/28 02:24:17;;;;;;;1999.90;999.90;;;;;;;;;;4950643;28;20313;-73
2023/07/28 02:27:02;;;;;;;1999.90;999.90;;;;;;;;;;4962107;28;20240;-74
2023/07/28 02:29:47;;;;;;;1999.90;999.90;;;;;;;;;;4973986;28;20227;-75
2023/07/28 02:32:34;;;;;;;1999.90;999.90;;;;;;;;;;4968762;28;20209;-74
2023/07/28 02:35:18;;;;;;;1999.90;999.90;;;;;;;;;;4970191;28;20212;-75
2023/07/28 02:38:03;;;;;;;1999.90;999.90;;;;;;;;;;4972937;28;20396;-75
2023/07/28 02:40:48;;;;;;;1999.90;999.90;;;;;;;;;;4973888;28;20931;-75
2023/07/28 02:43:33;;;;;;;1999.90;999.90;;;;;;;;;;4973575;28;20205;-77
2023/07/28 02:46:18;;;;;;;1999.90;999.90;;;;;;;;;;4973644;28;20595;-75
2023/07/28 02:49:04;;;;;;;1999.90;999.90;;;;;;;;;;4965044;28;20218;-75
2023/07/28 02:51:49;;;;;;;1999.90;999.90;;;;;;;;;;4934937;29;20219;-74
2023/07/28 02:54:34;;;;;;;1999.90;999.90;;;;;;;;;;4963770;28;20288;-75
2023/07/28 02:57:19;;;;;;;1999.90;999.90;;;;;;;;;;4966031;28;20595;-75
2023/07/28 03:00:05;;;;;;;1999.90;999.90;;;;;;;;;;4961488;28;20207;-77
2023/07/28 03:02:50;;;;;;;1999.90;999.90;;;;;;;;;;4961157;28;20668;-75
2023/07/28 03:05:37;;;;;;;1999.90;999.90;;;;;;;;;;4971468;28;20216;-75
2023/07/28 03:08:22;;;;;;;1999.90;999.90;;;;;;;;;;4957588;28;20372;-76
2023/07/28 03:11:07;;;;;;;1999.90;999.90;;;;;;;;;;4958592;28;20255;-75
2023/07/28 03:13:52;;;;;;;1999.90;999.90;;;;;;;;;;4973150;28;20756;-75
2023/07/28 03:16:36;;;;;;;1999.90;999.90;;;;;;;;;;4969949;28;20781;-75
2023/07/28 03:19:21;;;;;;;1999.90;999.90;;;;;;;;;;4973218;28;20255;-74
2023/07/28 03:22:08;;;;;;;1999.90;999.90;;;;;;;;;;4973119;28;20759;-75
2023/07/28 03:24:52;;;;;;;1999.90;999.90;;;;;;;;;;4973115;28;20217;-75
2023/07/28 03:27:37;;;;;;;1999.90;999.90;;;;;;;;;;4972742;28;20239;-74
2023/07/28 03:30:22;;;;;;;1999.90;999.90;;;;;;;;;;4972972;28;20289;-74
2023/07/28 03:33:07;;;;;;;1999.90;999.90;;;;;;;;;;4973137;28;20257;-75
2023/07/28 03:35:52;;;;;;;1999.90;999.90;;;;;;;;;;4972951;28;20431;-75
2023/07/28 03:38:38;;;;;;;1999.90;999.90;;;;;;;;;;4973157;28;20223;-74
2023/07/28 03:41:23;;;;;;;1999.90;999.90;;;;;;;;;;4972849;28;20209;-76
2023/07/28 03:44:08;;;;;;;1999.90;999.90;;;;;;;;;;4972991;28;20211;-75
2023/07/28 03:46:53;;;;;;;1999.90;999.90;;;;;;;;;;4956695;28;20746;-75
2023/07/28 03:49:38;;;;;;;1999.90;999.90;;;;;;;;;;4973007;28;20204;-75
2023/07/28 03:52:23;;;;;;;1999.90;999.90;;;;;;;;;;4972849;28;20205;-75
2023/07/28 03:55:09;;;;;;;1999.90;999.90;;;;;;;;;;4973079;28;20217;-75
2023/07/28 03:57:54;;;;;;;1999.90;999.90;;;;;;;;;;4972758;28;20238;-75
2023/07/28 04:00:39;;;;;;;1999.90;999.90;;;;;;;;;;4966870;28;20349;-74
2023/07/28 04:03:24;;;;;;;1999.90;999.90;;;;;;;;;;4972872;28;20196;-75
2023/07/28 04:06:10;;;;;;;1999.90;999.90;;;;;;;;;;4962094;28;20222;-74
2023/07/28 04:08:55;;;;;;;1999.90;999.90;;;;;;;;;;4945849;29;20209;-73
2023/07/28 04:11:42;;;;;;;1999.90;999.90;;;;;;;;;;4946212;28;20251;-75
2023/07/28 04:14:27;;;;;;;1999.90;999.90;;;;;;;;;;4952338;28;20290;-74
2023/07/28 04:17:12;;;;;;;1999.90;999.90;;;;;;;;;;4946938;28;20600;-74
2023/07/28 04:19:57;;;;;;;1999.90;999.90;;;;;;;;;;4944865;28;20200;-75
2023/07/28 04:22:42;;;;;;;1999.90;999.90;;;;;;;;;;4952339;28;20301;-74
2023/07/28 04:25:27;;;;;;;1999.90;999.90;;;;;;;;;;4952425;28;20284;-74
2023/07/28 04:28:13;;;;;;;1999.90;999.90;;;;;;;;;;4941858;28;20228;-75
2023/07/28 04:30:58;;;;;;;1999.90;999.90;;;;;;;;;;4944919;28;20269;-74
2023/07/28 04:33:43;;;;;;;1999.90;999.90;;;;;;;;;;4968653;28;20280;-74
2023/07/28 04:36:28;;;;;;;1999.90;999.90;;;;;;;;;;4956240;28;20440;-74
2023/07/28 04:39:13;;;;;;;1999.90;999.90;;;;;;;;;;4965982;28;20209;-74
2023/07/28 04:41:58;;;;;;;1999.90;999.90;;;;;;;;;;4954913;28;20263;-75
2023/07/28 04:44:45;;;;;;;1999.90;999.90;;;;;;;;;;4970042;28;20337;-75
2023/07/28 04:47:30;;;;;;;1999.90;999.90;;;;;;;;;;4963266;28;20236;-75
2023/07/28 04:50:15;;;;;;;1999.90;999.90;;;;;;;;;;4942937;29;20255;-74
2023/07/28 04:53:00;;;;;;;1999.90;999.90;;;;;;;;;;4960177;28;20208;-75
2023/07/28 04:55:45;;;;;;;1999.90;999.90;;;;;;;;;;4964285;28;20212;-73
2023/07/28 04:58:30;;;;;;;1999.90;999.90;;;;;;;;;;4957989;28;20337;-73
2023/07/28 05:01:16;;;;;;;1999.90;999.90;;;;;;;;;;4956410;28;20728;-74
2023/07/28 05:04:01;;;;;;;1999.90;999.90;;;;;;;;;;4966444;28;20620;-75
2023/07/28 05:06:46;;;;;;;1999.90;999.90;;;;;;;;;;4971613;28;20743;-73
2023/07/28 05:09:31;;;;;;;1999.90;999.90;;;;;;;;;;4970320;28;20244;-74
2023/07/28 05:12:16;;;;;;;1999.90;999.90;;;;;;;;;;4951683;28;20211;-73
2023/07/28 05:15:01;;;;;;;1999.90;999.90;;;;;;;;;;4944682;28;20777;-73
2023/07/28 05:17:48;;;;;;;1999.90;999.90;;;;;;;;;;4961085;28;20234;-74
2023/07/28 05:20:32;;;;;;;1999.90;999.90;;;;;;;;;;4954624;28;20209;-74
2023/07/28 05:23:17;;;;;;;1999.90;999.90;;;;;;;;;;4950727;28;20211;-74
2023/07/28 05:26:02;;;;;;;1999.90;999.90;;;;;;;;;;4947581;28;20356;-73
2023/07/28 05:28:47;;;;;;;1999.90;999.90;;;;;;;;;;4948816;28;20817;-73
2023/07/28 05:31:32;;;;;;;1999.90;999.90;;;;;;;;;;4952007;28;20229;-74
2023/07/28 05:34:18;;;;;;;1999.90;999.90;;;;;;;;;;4948572;28;20413;-74
2023/07/28 05:37:04;;;;;;;1999.90;999.90;;;;;;;;;;4952142;28;20227;-73
2023/07/28 05:39:49;;;;;;;1999.90;999.90;;;;;;;;;;4951261;28;20710;-70
2023/07/28 05:42:35;;;;;;;1999.90;999.90;;;;;;;;;;4956274;28;20578;-71
2023/07/28 05:45:20;;;;;;;1999.90;999.90;;;;;;;;;;4949522;28;20326;-74
2023/07/28 05:48:06;;;;;;;1999.90;999.90;;;;;;;;;;4944926;28;20241;-73
2023/07/28 05:50:53;;;;;;;1999.90;999.90;;;;;;;;;;4947803;28;20742;-73
2023/07/28 05:53:38;;;;;;;1999.90;999.90;;;;;;;;;;4954889;28;20217;-72
2023/07/28 05:56:23;;;;;;;1999.90;999.90;;;;;;;;;;4957321;28;20330;-74
2023/07/28 05:59:08;;;;;;;1999.90;999.90;;;;;;;;;;4955092;28;20367;-73
2023/07/28 06:01:53;;;;;;;1999.90;999.90;;;;;;;;;;4955015;28;20219;-71
2023/07/28 06:04:39;;;;;;;1999.90;999.90;;;;;;;;;;4955083;28;20206;-73
2023/07/28 06:07:26;;;;;;;1999.90;999.90;;;;;;;;;;4962888;28;20321;-72
2023/07/28 06:10:11;;;;;;;1999.90;999.90;;;;;;;;;;4955101;28;20208;-74
2023/07/28 06:12:56;;;;;;;1999.90;999.90;;;;;;;;;;4956852;28;20220;-74
2023/07/28 06:15:41;;;;;;;1999.90;999.90;;;;;;;;;;4959863;28;20241;-76
2023/07/28 06:18:27;;;;;;;1999.90;999.90;;;;;;;;;;4953114;28;20287;-72
2023/07/28 06:21:12;;;;;;;1999.90;999.90;;;;;;;;;;4951057;28;20209;-74
2023/07/28 06:23:58;;;;;;;1999.90;999.90;;;;;;;;;;4960716;28;20212;-73
2023/07/28 06:26:43;;;;;;;1999.90;999.90;;;;;;;;;;4973924;28;20236;-73
2023/07/28 06:29:28;;;;;;;1999.90;999.90;;;;;;;;;;4959983;28;20221;-74
2023/07/28 06:32:13;;;;;;;1999.90;999.90;;;;;;;;;;4955398;28;20208;-73
2023/07/28 06:34:58;;;;;;;1999.90;999.90;;;;;;;;;;4951574;28;20208;-73
2023/07/28 06:37:43;;;;;;;1999.90;999.90;;;;;;;;;;4968242;28;20307;-74
2023/07/28 06:40:30;;;;;;;1999.90;999.90;;;;;;;;;;4961143;28;20209;-73
2023/07/28 06:43:15;;;;;;;1999.90;999.90;;;;;;;;;;4967038;28;20218;-73
2023/07/28 06:46:00;;;;;;;1999.90;999.90;;;;;;;;;;4972503;28;20225;-74
2023/07/28 06:48:45;;;;;;;1999.90;999.90;;;;;;;;;;4955068;28;20234;-75
2023/07/28 06:51:30;;;;;;;1999.90;999.90;;;;;;;;;;4973496;28;20682;-74
2023/07/28 06:54:15;;;;;;;1999.90;999.90;;;;;;;;;;4955700;28;20216;-74
2023/07/28 06:57:01;;;;;;;1999.90;999.90;;;;;;;;;;4955824;28;20625;-73
2023/07/28 06:59:46;;;;;;;1999.90;999.90;;;;;;;;;;4966844;28;20752;-73
2023/07/28 07:02:31;;;;;;;1999.90;999.90;;;;;;;;;;4967639;28;20225;-75
2023/07/28 07:05:16;;;;;;;1999.90;999.90;;;;;;;;;;4960475;28;20214;-74
2023/07/28 07:08:01;;;;;;;1999.90;999.90;;;;;;;;;;4949428;28;20238;-74
2023/07/28 07:10:50;;;;;;;1999.90;999.90;;;;;;;;;;4961126;28;20210;-72
2023/07/28 07:13:36;;;;;;;1999.90;999.90;;;;;;;;;;4957631;28;20390;-73
2023/07/28 07:16:21;;;;;;;1999.90;999.90;;;;;;;;;;4968071;28;20307;-73
2023/07/28 07:19:06;;;;;;;1999.90;999.90;;;;;;;;;;4962653;28;20219;-73
2023/07/28 07:21:51;;;;;;;1999.90;999.90;;;;;;;;;;4967006;28;20225;-72
2023/07/28 07:24:36;;;;;;;1999.90;999.90;;;;;;;;;;4961977;28;20320;-74
2023/07/28 07:27:21;;;;;;;1999.90;999.90;;;;;;;;;;4955932;28;20233;-73
2023/07/28 07:30:08;;;;;;;1999.90;999.90;;;;;;;;;;4959300;28;20213;-74
2023/07/28 07:32:53;;;;;;;1999.90;999.90;;;;;;;;;;4956184;28;20471;-73
2023/07/28 07:35:38;;;;;;;1999.90;999.90;;;;;;;;;;4960873;28;20212;-73
2023/07/28 07:38:23;;;;;;;1999.90;999.90;;;;;;;;;;4959856;28;20227;-74
2023/07/28 07:41:10;;;;;;;1999.90;999.90;;;;;;;;;;4957551;28;20227;-74
2023/07/28 07:43:55;;;;;;;1999.90;999.90;;;;;;;;;;4957314;28;20215;-71
2023/07/28 07:46:41;;;;;;;1999.90;999.90;;;;;;;;;;4961780;28;20592;-71
2023/07/28 07:49:26;;;;;;;1999.90;999.90;;;;;;;;;;4964870;28;20215;-73
2023/07/28 07:52:11;;;;;;;1999.90;999.90;;;;;;;;;;4967332;28;20231;-74
2023/07/28 07:54:56;;;;;;;1999.90;999.90;;;;;;;;;;4952131;28;20286;-74
2023/07/28 07:57:41;;;;;;;1999.90;999.90;;;;;;;;;;4962989;28;20239;-74
2023/07/28 08:00:25;;;;;;;1999.90;999.90;;;;;;;;;;4954733;28;20223;-72
2023/07/28 08:03:12;;;;;;;1999.90;999.90;;;;;;;;;;4958506;28;21009;-73
2023/07/28 08:05:57;;;;;;;1999.90;999.90;;;;;;;;;;4969412;28;20208;-74
2023/07/28 08:08:42;;;;;;;1999.90;999.90;;;;;;;;;;4966136;28;20227;-73
2023/07/28 08:11:27;;;;;;;1999.90;999.90;;;;;;;;;;4961369;28;20605;-73
2023/07/28 08:14:12;;;;;;;1999.90;999.90;;;;;;;;;;4969897;28;20293;-74
2023/07/28 08:16:57;;;;;;;1999.90;999.90;;;;;;;;;;4967142;28;20223;-74
2023/07/28 08:19:44;;;;;;;1999.90;999.90;;;;;;;;;;4966098;28;20344;-74
2023/07/28 08:22:29;;;;;;;1999.90;999.90;;;;;;;;;;4965448;28;20220;-73
2023/07/28 08:25:14;;;;;;;1999.90;999.90;;;;;;;;;;4962403;28;20220;-74
2023/07/28 08:28:00;;;;;;;1999.90;999.90;;;;;;;;;;4957729;28;20356;-74
2023/07/28 08:30:44;;;;;;;1999.90;999.90;;;;;;;;;;4966237;28;20225;-73
2023/07/28 08:33:29;;;;;;;1999.90;999.90;;;;;;;;;;4957661;28;20773;-73
2023/07/28 08:36:16;;;;;;;1999.90;999.90;;;;;;;;;;4972336;28;20215;-74
2023/07/28 08:39:01;;;;;;;1999.90;999.90;;;;;;;;;;4964582;28;20255;-74
2023/07/28 08:41:45;;;;;;;1999.90;999.90;;;;;;;;;;4959236;28;20220;-73
2023/07/28 08:44:31;;;;;;;1999.90;999.90;;;;;;;;;;4967367;28;20290;-74
2023/07/28 08:47:16;;;;;;;1999.90;999.90;;;;;;;;;;4968565;28;20319;-75
2023/07/28 08:50:01;;;;;;;1999.90;999.90;;;;;;;;;;4969991;28;20212;-75
2023/07/28 08:52:50;;;;;;;1999.90;999.90;;;;;;;;;;4958971;28;20220;-74
2023/07/28 08:55:35;;;;;;;1999.90;999.90;;;;;;;;;;4964706;28;20678;-74
2023/07/28 08:58:21;;;;;;;1999.90;999.90;;;;;;;;;;4967013;28;20232;-74
2023/07/28 09:01:06;;;;;;;1999.90;999.90;;;;;;;;;;4964064;28;20287;-73
2023/07/28 09:03:51;;;;;;;1999.90;999.90;;;;;;;;;;4973633;28;20703;-74
2023/07/28 09:06:35;;;;;;;1999.90;999.90;;;;;;;;;;4966617;28;20236;-71
2023/07/28 09:09:23;;;;;;;1999.90;999.90;;;;;;;;;;4966824;28;20343;-74
2023/07/28 09:12:08;;;;;;;1999.90;999.90;;;;;;;;;;4965157;28;20955;-70
2023/07/28 09:14:56;;;;;;;1999.90;999.90;;;;;;;;;;4966945;28;20266;-72
2023/07/28 09:17:42;;;;;;;1999.90;999.90;;;;;;;;;;4967560;28;20228;-73
2023/07/28 09:20:34;;;;;;;1999.90;999.90;;;;;;;;;;4969070;28;20216;-72
2023/07/28 09:23:28;;;;;;;1999.90;999.90;;;;;;;;;;4964859;28;20295;-72
2023/07/28 09:26:14;;;;;;;1999.90;999.90;;;;;;;;;;4966077;28;20220;-72
2023/07/28 09:28:59;;;;;;;1999.90;999.90;;;;;;;;;;4973061;28;20348;-70
2023/07/28 09:31:44;;;;;;;1999.90;999.90;;;;;;;;;;4956150;28;20455;-73
2023/07/28 09:34:29;;;;;;;1999.90;999.90;;;;;;;;;;4949910;28;20335;-71
2023/07/28 09:37:14;;;;;;;1999.90;999.90;;;;;;;;;;4950600;28;20233;-71
2023/07/28 09:40:00;;;;;;;1999.90;999.90;;;;;;;;;;4957820;28;20208;-72
2023/07/28 09:42:49;;;;;;;1999.90;999.90;;;;;;;;;;4951888;28;20224;-72
2023/07/28 09:45:35;;;;;;;1999.90;999.90;;;;;;;;;;4946710;28;20430;-71
2023/07/28 09:48:20;;;;;;;1999.90;999.90;;;;;;;;;;4960322;28;20241;-71
2023/07/28 09:51:09;;;;;;;1999.90;999.90;;;;;;;;;;4951795;28;20217;-72
2023/07/28 09:53:56;;;;;;;1999.90;999.90;;;;;;;;;;4952771;28;20221;-71
2023/07/28 09:56:42;;;;;;;1999.90;999.90;;;;;;;;;;4954886;29;20601;-72
2023/07/28 09:59:29;;;;;;;1999.90;999.90;;;;;;;;;;4955432;28;20208;-70
2023/07/28 10:02:14;;;;;;;1999.90;999.90;;;;;;;;;;4953442;28;20218;-71
2023/07/28 10:04:59;;;;;;;1999.90;999.90;;;;;;;;;;4948074;28;20213;-73
2023/07/28 10:07:48;;;;;;;1999.90;999.90;;;;;;;;;;4954849;28;20237;-71
2023/07/28 10:10:33;;;;;;;1999.90;999.90;;;;;;;;;;4954479;28;20412;-71
2023/07/28 10:13:21;;;;;;;1999.90;999.90;;;;;;;;;;4949889;28;20235;-71
2023/07/28 10:16:09;;;;;;;1999.90;999.90;;;;;;;;;;4953122;28;20284;-71
2023/07/28 10:18:54;;;;;;;1999.90;999.90;;;;;;;;;;4953861;28;20204;-71
2023/07/28 10:21:41;;;;;;;1999.90;999.90;;;;;;;;;;4953831;28;20322;-72
2023/07/28 10:24:50;;;;;;;1999.90;999.90;;;;;;;;;;4952887;28;20220;-70
2023/07/28 10:27:35;;;;;;;1999.90;999.90;;;;;;;;;;4951634;28;20294;-72
2023/07/28 10:30:20;;;;;;;1999.90;999.90;;;;;;;;;;4951776;28;20448;-72
2023/07/28 10:33:07;;;;;;;1999.90;999.90;;;;;;;;;;4950748;28;20300;-70
2023/07/28 10:35:52;;;;;;;1999.90;999.90;;;;;;;;;;4952326;28;20302;-71
2023/07/28 10:38:37;;;;;;;1999.90;999.90;;;;;;;;;;4952482;28;20215;-70
2023/07/28 10:41:22;;;;;;;1999.90;999.90;;;;;;;;;;4956021;28;20457;-70
2023/07/28 10:44:08;;;;;;;1999.90;999.90;;;;;;;;;;4951430;28;20215;-73
2023/07/28 10:46:53;;;;;;;1999.90;999.90;;;;;;;;;;4955642;28;20242;-74
2023/07/28 10:49:40;;;;;;;1999.90;999.90;;;;;;;;;;4954025;28;20235;-71
2023/07/28 10:52:25;;;;;;;1999.90;999.90;;;;;;;;;;4954301;28;20214;-71
2023/07/28 10:55:14;;;;;;;1999.90;999.90;;;;;;;;;;4953747;28;21049;-70
2023/07/28 10:58:00;;;;;;;1999.90;999.90;;;;;;;;;;4952751;28;20354;-70
2023/07/28 11:00:45;;;;;;;1999.90;999.90;;;;;;;;;;4951030;28;20295;-70
2023/07/28 11:03:30;;;;;;;1999.90;999.90;;;;;;;;;;4954872;28;20271;-71
2023/07/28 11:06:16;;;;;;;1999.90;999.90;;;;;;;;;;4948862;28;20259;-70
2023/07/28 11:09:01;;;;;;;1999.90;999.90;;;;;;;;;;4950742;28;20344;-71
2023/07/28 11:11:46;;;;;;;1999.90;999.90;;;;;;;;;;4955537;28;20599;-71
2023/07/28 11:14:31;;;;;;;1999.90;999.90;;;;;;;;;;4953545;28;20345;-71
2023/07/28 11:17:16;;;;;;;1999.90;999.90;;;;;;;;;;4954212;28;20933;-72
2023/07/28 11:20:01;;;;;;;1999.90;999.90;;;;;;;;;;4950078;28;20337;-70
2023/07/28 11:22:48;;;;;;;1999.90;999.90;;;;;;;;;;4954021;28;20216;-71
2023/07/28 11:25:34;;;;;;;1999.90;999.90;;;;;;;;;;4951332;28;20316;-70
2023/07/28 11:28:20;;;;;;;1999.90;999.90;;;;;;;;;;4953439;28;20279;-71
2023/07/28 11:31:05;;;;;;;1999.90;999.90;;;;;;;;;;4960323;28;20260;-70
2023/07/28 11:33:50;;;;;;;1999.90;999.90;;;;;;;;;;4952595;28;20814;-70
2023/07/28 11:36:35;;;;;;;1999.90;999.90;;;;;;;;;;4950414;28;20372;-71
2023/07/28 11:39:22;;;;;;;1999.90;999.90;;;;;;;;;;4959987;28;20339;-71
2023/07/28 11:42:07;;;;;;;1999.90;999.90;;;;;;;;;;4947713;28;20232;-69
2023/07/28 11:44:53;;;;;;;1999.90;999.90;;;;;;;;;;4953387;28;20220;-70
2023/07/28 11:47:38;;;;;;;1999.90;999.90;;;;;;;;;;4964223;28;20235;-71
2023/07/28 11:50:23;;;;;;;1999.90;999.90;;;;;;;;;;4972562;28;20587;-70
2023/07/28 11:53:09;;;;;;;1999.90;999.90;;;;;;;;;;4972800;28;20222;-71
2023/07/28 11:55:56;;;;;;;1999.90;999.90;;;;;;;;;;4974689;28;20539;-71
2023/07/28 11:58:41;;;;;;;1999.90;999.90;;;;;;;;;;4976859;28;20330;-71
2023/07/28 12:01:27;;;;;;;1999.90;999.90;;;;;;;;;;4976663;28;20697;-72
2023/07/28 12:04:22;;;;;;;1999.90;999.90;;;;;;;;;;4976880;28;20271;-71
2023/07/28 12:07:08;;;;;;;1999.90;999.90;;;;;;;;;;4976735;28;20268;-71
2023/07/28 12:09:55;;;;;;;1999.90;999.90;;;;;;;;;;4976538;28;20232;-71
2023/07/28 12:12:43;;;;;;;1999.90;999.90;;;;;;;;;;4976574;28;20235;-71
2023/07/28 12:15:28;;;;;;;1999.90;999.90;;;;;;;;;;4976519;28;20562;-70
2023/07/28 12:18:14;;;;;;;1999.90;999.90;;;;;;;;;;4976526;28;20228;-71
2023/07/28 12:21:00;;;;;;;1999.90;999.90;;;;;;;;;;4976183;28;20240;-71
2023/07/28 12:23:45;;;;;;;1999.90;999.90;;;;;;;;;;4963295;28;20537;-71
2023/07/28 12:26:29;;;;;;;1999.90;999.90;;;;;;;;;;4956001;28;20255;-72
2023/07/28 12:29:16;;;;;;;1999.90;999.90;;;;;;;;;;4962863;28;20714;-72
2023/07/28 12:32:01;;;;;;;1999.90;999.90;;;;;;;;;;4965807;28;20756;-70
2023/07/28 12:34:46;;;;;;;1999.90;999.90;;;;;;;;;;4965670;28;20280;-71
2023/07/28 12:37:30;;;;;;;1999.90;999.90;;;;;;;;;;4962019;28;20224;-71
2023/07/28 12:40:16;;;;;;;1999.90;999.90;;;;;;;;;;4960041;28;20217;-70
2023/07/28 12:43:02;;;;;;;1999.90;999.90;;;;;;;;;;4964367;28;20215;-69
2023/07/28 12:45:48;;;;;;;1999.90;999.90;;;;;;;;;;4963653;28;20707;-70
2023/07/28 12:48:33;;;;;;;1999.90;999.90;;;;;;;;;;4963546;28;20295;-69
2023/07/28 12:51:18;;;;;;;1999.90;999.90;;;;;;;;;;4959461;28;20290;-69
2023/07/28 12:54:04;;;;;;;1999.90;999.90;;;;;;;;;;4957345;28;20217;-69
2023/07/28 12:56:49;;;;;;;1999.90;999.90;;;;;;;;;;4961107;28;20256;-69
2023/07/28 12:59:34;;;;;;;1999.90;999.90;;;;;;;;;;4958148;28;20209;-69
2023/07/28 13:02:23;;;;;;;1999.90;999.90;;;;;;;;;;4956192;28;20339;-69
2023/07/28 13:05:10;;;;;;;1999.90;999.90;;;;;;;;;;4954488;28;20212;-70
2023/07/28 13:07:54;;;;;;;1999.90;999.90;;;;;;;;;;4953920;28;20237;-71
2023/07/28 13:10:39;;;;;;;1999.90;999.90;;;;;;;;;;4946578;28;20229;-71
2023/07/28 13:13:24;;;;;;;1999.90;999.90;;;;;;;;;;4941370;28;20297;-71
2023/07/28 13:16:09;;;;;;;1999.90;999.90;;;;;;;;;;4935940;29;20900;-71
2023/07/28 13:18:56;;;;;;;1999.90;999.90;;;;;;;;;;4937178;29;20209;-71
2023/07/28 13:21:41;;;;;;;1999.90;999.90;;;;;;;;;;4948591;28;20350;-70
2023/07/28 13:24:26;;;;;;;1999.90;999.90;;;;;;;;;;4954306;28;20212;-71
2023/07/28 13:27:11;;;;;;;1999.90;999.90;;;;;;;;;;4954997;28;20716;-72
2023/07/28 13:29:57;;;;;;;1999.90;999.90;;;;;;;;;;4962344;28;20236;-71
2023/07/28 13:32:42;;;;;;;1999.90;999.90;;;;;;;;;;4956620;28;20209;-70
2023/07/28 13:35:28;;;;;;;1999.90;999.90;;;;;;;;;;4967022;28;20217;-71
2023/07/28 13:38:13;;;;;;;1999.90;999.90;;;;;;;;;;4964371;28;20276;-71
2023/07/28 13:40:58;;;;;;;1999.90;999.90;;;;;;;;;;4967791;28;20280;-71
2023/07/28 13:43:43;;;;;;;1999.90;999.90;;;;;;;;;;4939248;28;20209;-71
2023/07/28 13:46:28;;;;;;;1999.90;999.90;;;;;;;;;;4936494;29;20316;-71
2023/07/28 13:49:13;;;;;;;1999.90;999.90;;;;;;;;;;4941309;29;20220;-71
2023/07/28 13:51:59;;;;;;;1999.90;999.90;;;;;;;;;;4936273;29;20217;-71
2023/07/28 13:54:44;;;;;;;1999.90;999.90;;;;;;;;;;4936469;29;20337;-71
2023/07/28 13:57:29;;;;;;;1999.90;999.90;;;;;;;;;;4936087;29;20257;-70
2023/07/28 14:00:14;;;;;;;1999.90;999.90;;;;;;;;;;4936204;29;20334;-70
2023/07/28 14:02:59;;;;;;;1999.90;999.90;;;;;;;;;;4953608;28;20304;-70
2023/07/28 14:05:44;;;;;;;1999.90;999.90;;;;;;;;;;4963089;28;20215;-70
2023/07/28 14:08:31;;;;;;;1999.90;999.90;;;;;;;;;;4958125;28;20261;-71
2023/07/28 14:11:15;;;;;;;1999.90;999.90;;;;;;;;;;4953497;28;20220;-71
2023/07/28 14:14:01;;;;;;;1999.90;999.90;;;;;;;;;;4951296;29;20884;-71
2023/07/28 14:16:46;;;;;;;1999.90;999.90;;;;;;;;;;4958123;28;20239;-71
2023/07/28 14:19:30;;;;;;;1999.90;999.90;;;;;;;;;;4953932;28;20213;-71
2023/07/28 14:22:15;;;;;;;1999.90;999.90;;;;;;;;;;4951348;28;20730;-70
2023/07/28 14:25:02;;;;;;;1999.90;999.90;;;;;;;;;;4955135;28;20765;-71
2023/07/28 14:27:46;;;;;;;1999.90;999.90;;;;;;;;;;4955470;28;20364;-70
2023/07/28 14:30:31;;;;;;;1999.90;999.90;;;;;;;;;;4963304;28;20220;-70
2023/07/28 14:33:17;;;;;;;1999.90;999.90;;;;;;;;;;4953376;28;20212;-70
2023/07/28 14:36:02;;;;;;;1999.90;999.90;;;;;;;;;;4953635;28;20216;-71
2023/07/28 14:38:47;;;;;;;1999.90;999.90;;;;;;;;;;4958385;28;20216;-70
2023/07/28 14:41:33;;;;;;;1999.90;999.90;;;;;;;;;;4963454;28;20705;-71
2023/07/28 14:44:18;;;;;;;1999.90;999.90;;;;;;;;;;4951309;28;20212;-71
2023/07/28 14:47:03;;;;;;;1999.90;999.90;;;;;;;;;;4959759;28;20321;-71
2023/07/28 14:49:47;;;;;;;1999.90;999.90;;;;;;;;;;4954183;28;20244;-72
2023/07/28 14:52:33;;;;;;;1999.90;999.90;;;;;;;;;;4965449;28;20296;-70
2023/07/28 14:55:19;;;;;;;1999.90;999.90;;;;;;;;;;4973785;28;20223;-70
2023/07/28 14:58:05;;;;;;;1999.90;999.90;;;;;;;;;;4954222;29;20235;-71
2023/07/28 15:00:49;;;;;;;1999.90;999.90;;;;;;;;;;4953822;29;20199;-71
2023/07/28 15:03:35;;;;;;;1999.90;999.90;;;;;;;;;;4954356;29;20216;-70
2023/07/28 15:06:20;;;;;;;1999.90;999.90;;;;;;;;;;4954079;29;20223;-70
2023/07/28 15:09:04;;;;;;;1999.90;999.90;;;;;;;;;;4941548;29;20220;-71
2023/07/28 15:11:50;;;;;;;1999.90;999.90;;;;;;;;;;4934856;29;20576;-70
2023/07/28 15:14:36;;;;;;;1999.90;999.90;;;;;;;;;;4949531;29;20504;-70
2023/07/28 15:17:21;;;;;;;1999.90;999.90;;;;;;;;;;4953780;29;20247;-70
2023/07/28 15:20:06;;;;;;;1999.90;999.90;;;;;;;;;;4951689;29;20678;-70
2023/07/28 15:22:51;;;;;;;1999.90;999.90;;;;;;;;;;4962038;28;20240;-70
2023/07/28 15:25:37;;;;;;;1999.90;999.90;;;;;;;;;;4952944;28;20219;-71
2023/07/28 15:28:22;;;;;;;1999.90;999.90;;;;;;;;;;4961009;28;20737;-69
2023/07/28 15:31:08;;;;;;;1999.90;999.90;;;;;;;;;;4950240;28;20231;-70
2023/07/28 15:33:53;;;;;;;1999.90;999.90;;;;;;;;;;4957143;28;20270;-70
2023/07/28 15:36:38;;;;;;;1999.90;999.90;;;;;;;;;;4952144;28;20238;-70
2023/07/28 15:39:23;;;;;;;1999.90;999.90;;;;;;;;;;4951555;28;20220;-69
2023/07/28 15:42:08;;;;;;;1999.90;999.90;;;;;;;;;;4956809;28;20208;-69
2023/07/28 15:44:53;;;;;;;1999.90;999.90;;;;;;;;;;4960911;28;20212;-70
2023/07/28 15:47:39;;;;;;;1999.90;999.90;;;;;;;;;;4958467;28;20331;-72
2023/07/28 15:50:24;;;;;;;1999.90;999.90;;;;;;;;;;4950791;29;20764;-70
2023/07/28 15:53:09;;;;;;;1999.90;999.90;;;;;;;;;;4953922;28;20216;-70
2023/07/28 15:55:54;;;;;;;1999.90;999.90;;;;;;;;;;4952024;28;20208;-70
2023/07/28 15:58:39;;;;;;;1999.90;999.90;;;;;;;;;;4952457;28;20692;-70
2023/07/28 16:01:24;;;;;;;1999.90;999.90;;;;;;;;;;4955234;28;20264;-70
2023/07/28 16:04:10;;;;;;;1999.90;999.90;;;;;;;;;;4950070;28;20292;-70
2023/07/28 16:06:55;;;;;;;1999.90;999.90;;;;;;;;;;4958965;28;20260;-70
2023/07/28 16:09:40;;;;;;;1999.90;999.90;;;;;;;;;;4953787;28;20231;-70
2023/07/28 16:12:25;;;;;;;1999.90;999.90;;;;;;;;;;4953471;28;20478;-70
2023/07/28 16:15:11;;;;;;;1999.90;999.90;;;;;;;;;;4952110;28;20336;-70
2023/07/28 16:17:57;;;;;;;1999.90;999.90;;;;;;;;;;4956520;28;20240;-70
2023/07/28 16:20:43;;;;;;;1999.90;999.90;;;;;;;;;;4960904;28;20365;-70